White Oak, Ohio
Current Conditions -  °F | °C
As of 10:35 PM on Friday 28 Nov 2014 (Local Time) from KI67 Reporting Station
Clear Clear  
Wind Chill: 32°   Ceiling: Unl
Heat Index: 32°   Visibility: 10mi
Dew Point: 21°   Wind: 3mph
Humidity: 64%   Direction: 100°E
Pressure: 30.11"   Gusts: NA
Location:  39.2201°N, 84.6531°W
Report Text: KI67 290335Z AUTO 10003KT 10SM CLR 00/M06 A3011 RMK AO1
Loading
Personal Weather Stations






























Interactive Weather Map New forecast layout! Learn more

10-Day Weather Forecast

Advertisements
Track Severe Weather on mobile